Time;durP1;ratioP1;P1;durP2;ratioP2;P2;SDS_P1;SDS_P2;PMS_P1;PMS_P2;Temp;Humidity;BMP_temperature;BMP_pressure;BME280_temperature;BME280_humidity;BME280_pressure;Samples;Min_cycle;Max_cycle;Signal;HPM_P1;HPM_P2
2022/05/18 00:00:48;;;;;;;9.60;8.53;;;;;;;17.59;76.33;101383.22;5031561;28;20210;-83
2022/05/18 00:03:17;;;;;;;8.60;7.70;;;;;;;17.55;76.39;101381.78;5031547;28;20210;-82
2022/05/18 00:05:45;;;;;;;8.00;7.20;;;;;;;17.54;76.71;101388.16;5031321;28;20211;-83
2022/05/18 00:08:12;;;;;;;8.37;7.57;;;;;;;17.53;76.79;101382.91;5030506;28;20228;-83
2022/05/18 00:10:42;;;;;;;8.87;8.07;;;;;;;17.49;76.62;101381.41;5031399;28;20209;-82
2022/05/18 00:13:10;;;;;;;9.60;7.60;;;;;;;17.41;76.52;101381.16;5032143;28;20223;-82
2022/05/18 00:15:38;;;;;;;8.10;7.33;;;;;;;17.30;76.22;101380.22;5031460;28;20209;-83
2022/05/18 00:18:05;;;;;;;7.80;7.10;;;;;;;17.17;76.10;101392.06;5031411;28;20235;-83
2022/05/18 00:20:32;;;;;;;8.13;7.33;;;;;;;17.05;76.39;101388.50;5034363;28;20213;-83
2022/05/18 00:23:01;;;;;;;7.97;7.17;;;;;;;16.97;77.14;101388.25;5032668;28;20214;-82
2022/05/18 00:25:30;;;;;;;8.60;7.47;;;;;;;16.92;77.56;101391.31;5033235;28;20841;-82
2022/05/18 00:27:57;;;;;;;8.93;8.00;;;;;;;16.90;78.05;101392.41;5035245;28;20233;-82
2022/05/18 00:30:26;;;;;;;8.07;7.23;;;;;;;16.88;78.36;101397.03;5035540;28;20205;-83
2022/05/18 00:32:53;;;;;;;9.30;7.27;;;;;;;16.84;78.72;101406.34;5033116;28;20241;-82
2022/05/18 00:35:22;;;;;;;8.07;7.20;;;;;;;16.81;78.96;101402.06;5048892;28;20294;-83
2022/05/18 00:37:49;;;;;;;8.80;7.90;;;;;;;16.80;78.94;101402.19;5049453;28;20228;-82
2022/05/18 00:40:18;;;;;;;8.47;7.60;;;;;;;16.77;79.26;101402.41;5035205;28;20205;-82
2022/05/18 00:42:45;;;;;;;8.57;7.77;;;;;;;16.76;79.36;101411.44;5035959;28;20292;-82
2022/05/18 00:45:12;;;;;;;8.43;7.60;;;;;;;16.74;79.24;101410.72;5035462;28;20299;-82
2022/05/18 00:47:40;;;;;;;8.70;7.90;;;;;;;16.72;79.50;101410.81;5034579;28;20212;-82
2022/05/18 00:50:10;;;;;;;8.83;7.93;;;;;;;16.73;79.91;101409.84;5034829;28;20246;-82
2022/05/18 00:52:43;;;;;;;8.60;7.30;;;;;;;16.74;79.99;101411.56;5035024;28;20234;-82
2022/05/18 00:55:13;;;;;;;8.30;7.40;;;;;;;16.73;79.76;101417.06;5029883;28;20246;-82
2022/05/18 00:57:46;;;;;;;9.27;8.30;;;;;;;16.70;79.81;101412.78;5035981;28;20220;-83
2022/05/18 01:00:19;;;;;;;9.50;8.50;;;;;;;16.67;79.91;101413.84;5037258;28;20546;-82
2022/05/18 01:02:54;;;;;;;9.47;8.47;;;;;;;16.66;80.14;101411.28;5037267;28;20193;-82
2022/05/18 01:05:26;;;;;;;8.80;7.90;;;;;;;16.62;79.88;101407.97;5035522;28;20186;-82
2022/05/18 01:07:55;;;;;;;9.07;7.67;;;;;;;16.54;79.61;101413.06;5041580;28;20227;-83
2022/05/18 01:10:23;;;;;;;9.20;8.20;;;;;;;16.46;79.64;101418.19;5053702;28;20221;-82
2022/05/18 01:12:49;;;;;;;9.83;8.93;;;;;;;16.44;80.23;101417.44;5037839;28;20225;-82
2022/05/18 01:15:18;;;;;;;9.23;8.33;;;;;;;16.42;80.30;101423.91;5034187;28;20208;-82
2022/05/18 01:17:48;;;;;;;9.43;8.43;;;;;;;16.43;80.42;101420.22;5033778;28;20236;-82
2022/05/18 01:20:18;;;;;;;9.00;8.10;;;;;;;16.42;80.26;101416.69;5033917;28;20194;-82
2022/05/18 01:22:52;;;;;;;9.27;8.37;;;;;;;16.42;80.62;101423.91;5034457;28;20299;-82
2022/05/18 01:25:30;;;;;;;9.87;8.33;;;;;;;16.42;80.75;101419.38;5033488;28;20726;-82
2022/05/18 01:28:01;;;;;;;10.03;9.03;;;;;;;16.41;80.57;101420.34;5033193;28;20231;-82
2022/05/18 01:30:30;;;;;;;10.53;8.93;;;;;;;16.37;80.58;101412.63;5033623;28;20317;-82
2022/05/18 01:32:58;;;;;;;14.07;9.43;;;;;;;16.33;80.73;101409.31;5034071;28;20637;-82
2022/05/18 01:35:28;;;;;;;9.87;8.80;;;;;;;16.31;80.87;101416.63;5035149;28;20201;-83
2022/05/18 01:37:57;;;;;;;9.40;8.50;;;;;;;16.29;80.89;101410.53;5034466;28;20235;-83
2022/05/18 01:40:30;;;;;;;8.67;7.87;;;;;;;16.28;81.09;101409.66;5036474;28;20203;-83
2022/05/18 01:43:03;;;;;;;9.60;8.70;;;;;;;16.26;81.21;101406.25;5036472;28;20199;-83
2022/05/18 01:45:29;;;;;;;9.80;8.90;;;;;;;16.24;81.27;101413.56;5036537;28;20195;-83
2022/05/18 01:48:07;;;;;;;9.30;8.30;;;;;;;16.24;81.71;101413.56;5035837;28;20230;-83
2022/05/18 01:50:33;;;;;;;9.33;8.50;;;;;;;16.22;81.62;101401.19;5035311;28;20219;-83
2022/05/18 01:53:00;;;;;;;11.33;8.63;;;;;;;16.22;81.94;101411.94;5035207;28;20233;-82
2022/05/18 01:55:26;;;;;;;10.17;9.10;;;;;;;16.21;82.08;101407.53;5036450;28;20210;-83
2022/05/18 01:57:53;;;;;;;9.73;8.83;;;;;;;16.20;82.20;101403.13;5025728;28;20215;-83
2022/05/18 02:00:21;;;;;;;9.50;8.60;;;;;;;16.18;82.22;101410.47;5015930;28;20218;-83
2022/05/18 02:02:48;;;;;;;11.07;9.93;;;;;;;16.16;82.61;101409.72;5019789;28;20211;-83
2022/05/18 02:05:15;;;;;;;10.27;8.43;;;;;;;16.13;82.39;101410.78;5054279;28;20199;-82
2022/05/18 02:07:41;;;;;;;9.57;7.97;;;;;;;16.06;81.98;101406.88;5045699;28;20537;-82
2022/05/18 02:10:09;;;;;;;9.23;8.43;;;;;;;15.95;81.74;101404.09;5035983;28;20215;-82
2022/05/18 02:12:36;;;;;;;9.23;8.33;;;;;;;15.88;82.24;101413.59;5036366;28;20221;-83
2022/05/18 02:15:03;;;;;;;12.63;9.43;;;;;;;15.85;82.51;101412.00;5036022;28;20243;-83
2022/05/18 02:17:31;;;;;;;12.63;11.33;;;;;;;15.82;82.81;101417.56;5035591;28;20234;-82
2022/05/18 02:19:58;;;;;;;12.83;9.83;;;;;;;15.80;83.09;101411.47;5035812;28;20230;-82
2022/05/18 02:22:25;;;;;;;12.27;11.17;;;;;;;15.82;83.25;101416.72;5032868;28;20202;-82
2022/05/18 02:24:52;;;;;;;13.33;12.07;;;;;;;15.81;83.28;101413.19;5032768;28;20215;-82
2022/05/18 02:27:19;;;;;;;13.23;12.00;;;;;;;15.79;83.63;101409.75;5029137;28;20207;-83
2022/05/18 02:29:45;;;;;;;14.23;12.73;;;;;;;15.80;83.71;101408.78;5014366;28;20590;-83
2022/05/18 02:32:12;;;;;;;14.13;12.83;;;;;;;15.79;83.82;101407.06;5026319;28;20213;-83
2022/05/18 02:34:40;;;;;;;13.77;12.37;;;;;;;15.78;84.05;101405.34;5018567;28;20724;-83
2022/05/18 02:37:07;;;;;;;13.63;12.33;;;;;;;15.80;84.45;101410.59;5014378;28;20202;-82
2022/05/18 02:39:33;;;;;;;14.80;12.13;;;;;;;15.80;84.41;101414.16;5013922;28;20229;-82
2022/05/18 02:42:00;;;;;;;13.17;11.80;;;;;;;15.82;84.89;101431.00;5013360;28;20246;-83
2022/05/18 02:44:26;;;;;;;11.83;10.73;;;;;;;15.82;84.51;101424.78;5020311;28;20205;-82
2022/05/18 02:46:56;;;;;;;11.73;10.67;;;;;;;15.83;84.66;101426.50;5015283;28;20199;-82
2022/05/18 02:49:24;;;;;;;11.47;10.30;;;;;;;15.83;84.70;101426.50;5013073;28;20716;-82
2022/05/18 02:51:52;;;;;;;10.73;9.63;;;;;;;15.80;84.49;101424.88;5016749;28;20314;-82
2022/05/18 02:57:04;;;;;;;12.03;10.63;;;;;;;15.77;84.72;101430.47;5031782;28;20234;-83
2022/05/18 02:59:31;;;;;;;11.77;10.60;;;;;;;15.76;84.74;101431.47;5031260;28;20231;-82
2022/05/18 03:01:58;;;;;;;12.70;10.73;;;;;;;15.74;84.73;101419.97;5046037;28;20208;-82
2022/05/18 03:04:24;;;;;;;11.23;10.13;;;;;;;15.73;84.92;101417.41;5052872;28;20206;-83
2022/05/18 03:06:52;;;;;;;11.17;10.07;;;;;;;15.69;84.77;101418.59;5051873;28;20208;-83
2022/05/18 03:09:19;;;;;;;14.80;9.73;;;;;;;15.65;85.13;101425.16;5041978;28;20227;-82
2022/05/18 03:11:46;;;;;;;13.23;10.87;;;;;;;15.60;84.96;101422.78;5032837;28;20206;-83
2022/05/18 03:14:13;;;;;;;12.93;10.93;;;;;;;15.60;85.10;101438.91;5032069;28;20231;-82
2022/05/18 03:16:43;;;;;;;12.60;11.50;;;;;;;15.60;85.41;101433.53;5031586;28;20206;-82
2022/05/18 03:19:10;;;;;;;12.63;11.43;;;;;;;15.59;85.57;101432.66;5032458;28;20244;-82
2022/05/18 03:24:24;;;;;;;12.83;11.00;;;;;;;15.63;86.19;101428.78;5007064;28;20210;-82
2022/05/18 03:26:51;;;;;;;12.83;11.63;;;;;;;15.65;86.05;101430.50;5033255;28;20206;-82
2022/05/18 03:29:18;;;;;;;14.30;12.90;;;;;;;15.65;85.93;101428.69;5032907;28;20226;-82
2022/05/18 03:31:44;;;;;;;12.43;11.43;;;;;;;15.66;86.15;101432.22;5032331;28;20207;-82
2022/05/18 03:34:11;;;;;;;13.13;11.77;;;;;;;15.65;86.25;101426.00;5032492;28;20316;-82
2022/05/18 03:36:38;;;;;;;16.10;11.63;;;;;;;15.65;86.47;101431.38;5032118;28;20274;-82
2022/05/18 03:39:06;;;;;;;13.07;11.70;;;;;;;15.63;86.57;101436.84;5032209;28;20233;-82
2022/05/18 03:41:34;;;;;;;12.70;11.50;;;;;;;15.63;86.21;101430.63;5032498;28;20194;-83
2022/05/18 03:44:01;;;;;;;13.23;11.83;;;;;;;15.60;86.61;101430.84;5031796;28;20276;-82
2022/05/18 03:46:27;;;;;;;11.97;10.73;;;;;;;15.58;86.52;101435.50;5031583;28;20240;-83
2022/05/18 03:48:54;;;;;;;12.37;11.17;;;;;;;15.55;86.69;101439.25;5030641;28;20230;-82
2022/05/18 03:51:20;;;;;;;13.83;11.77;;;;;;;15.53;86.27;101432.22;5026487;28;20571;-82
2022/05/18 03:53:47;;;;;;;13.37;11.17;;;;;;;15.50;86.68;101438.69;5011443;28;20229;-82
2022/05/18 03:56:15;;;;;;;12.90;11.67;;;;;;;15.50;86.98;101445.88;5022075;28;20216;-82
2022/05/18 03:58:43;;;;;;;12.23;11.03;;;;;;;15.50;87.05;101453.94;5033877;28;20305;-82
2022/05/18 04:01:10;;;;;;;13.50;12.00;;;;;;;15.49;87.27;101447.69;5029407;28;20217;-82
2022/05/18 04:03:38;;;;;;;13.43;12.03;;;;;;;15.51;87.30;101447.59;5022243;28;20203;-82
2022/05/18 04:06:05;;;;;;;13.67;12.37;;;;;;;15.52;87.58;101452.00;5033601;28;20206;-83
2022/05/18 04:08:31;;;;;;;14.43;12.93;;;;;;;15.54;87.90;101455.44;5026790;28;20225;-82
2022/05/18 04:10:58;;;;;;;13.77;12.33;;;;;;;15.56;87.79;101458.91;5027922;28;20210;-82
2022/05/18 04:13:26;;;;;;;13.50;12.13;;;;;;;15.58;88.21;101462.34;5027945;28;20230;-82
2022/05/18 04:15:54;;;;;;;14.50;13.03;;;;;;;15.62;88.18;101466.50;5032055;28;20210;-83
2022/05/18 04:18:22;;;;;;;13.00;11.63;;;;;;;15.65;88.09;101468.09;5027494;28;20223;-83
2022/05/18 04:20:48;;;;;;;14.40;12.90;;;;;;;15.66;88.30;101473.38;5021965;28;20312;-83
2022/05/18 04:23:15;;;;;;;14.50;13.03;;;;;;;15.67;88.41;101469.72;5029798;28;20206;-83
2022/05/18 04:25:42;;;;;;;13.87;12.47;;;;;;;15.69;88.36;101472.31;5025624;28;20207;-83
2022/05/18 04:28:13;;;;;;;15.10;13.27;;;;;;;15.72;88.54;101477.47;5018022;28;20228;-83
2022/05/18 04:30:41;;;;;;;14.63;13.13;;;;;;;15.73;88.45;101471.97;5023603;28;20551;-83
2022/05/18 04:33:09;;;;;;;16.43;13.33;;;;;;;15.75;88.74;101464.69;5027393;28;20293;-83
2022/05/18 04:35:36;;;;;;;14.77;12.73;;;;;;;15.79;88.70;101470.66;5030698;28;20226;-83
2022/05/18 04:38:02;;;;;;;15.77;13.37;;;;;;;15.81;88.75;101477.63;5030842;28;20241;-82
2022/05/18 04:40:29;;;;;;;13.93;12.63;;;;;;;15.85;88.99;101479.16;5022268;28;20299;-82
2022/05/18 04:42:56;;;;;;;13.80;12.50;;;;;;;15.88;89.04;101473.56;5019705;28;20215;-82
2022/05/18 04:45:23;;;;;;;13.57;12.17;;;;;;;15.90;89.01;101477.00;5027219;28;20206;-82
2022/05/18 04:47:50;;;;;;;14.00;12.60;;;;;;;15.93;88.58;101482.16;5037684;28;20317;-82
2022/05/18 04:50:19;;;;;;;15.70;14.00;;;;;;;15.94;88.52;101475.78;5035445;28;20207;-82
2022/05/18 04:52:46;;;;;;;15.10;13.20;;;;;;;15.96;88.17;101476.53;5033930;28;20220;-83
2022/05/18 04:55:13;;;;;;;15.47;14.03;;;;;;;15.98;88.33;101471.03;5035385;28;20551;-82
2022/05/18 04:57:41;;;;;;;15.77;14.27;;;;;;;15.99;88.28;101475.44;5036871;28;20598;-82
2022/05/18 05:00:12;;;;;;;15.87;14.47;;;;;;;16.03;88.51;101484.16;5031936;28;20226;-84
2022/05/18 05:02:39;;;;;;;15.23;13.77;;;;;;;16.05;88.38;101476.84;5031680;28;20200;-83
2022/05/18 05:05:08;;;;;;;15.47;14.07;;;;;;;16.08;88.33;101479.31;5038334;28;20657;-84
2022/05/18 05:07:36;;;;;;;17.03;15.13;;;;;;;16.09;88.31;101483.72;5022434;28;20285;-84
2022/05/18 05:10:03;;;;;;;15.50;13.90;;;;;;;16.10;88.26;101483.59;5031165;28;20317;-84
2022/05/18 05:12:30;;;;;;;15.97;14.47;;;;;;;16.11;88.26;101485.31;5036091;28;20200;-84
2022/05/18 05:14:57;;;;;;;15.30;13.80;;;;;;;16.13;88.32;101490.56;5037262;28;20227;-83
2022/05/18 05:17:23;;;;;;;15.87;14.33;;;;;;;16.14;88.05;101489.59;5040368;28;20781;-83
2022/05/18 05:19:50;;;;;;;15.43;13.90;;;;;;;16.16;88.13;101493.88;5032651;28;20227;-83
2022/05/18 05:22:16;;;;;;;14.43;13.00;;;;;;;16.17;88.08;101492.91;5034946;28;20918;-83
2022/05/18 05:24:44;;;;;;;16.30;14.77;;;;;;;16.18;87.87;101483.88;5037061;28;20192;-83
2022/05/18 05:27:11;;;;;;;16.17;14.47;;;;;;;16.18;88.13;101494.63;5037275;28;20199;-83
2022/05/18 05:29:37;;;;;;;16.03;14.53;;;;;;;16.19;88.09;101490.97;5037996;28;20231;-84
2022/05/18 05:32:06;;;;;;;15.13;13.60;;;;;;;16.21;88.04;101498.94;5039152;28;20237;-83
2022/05/18 05:34:33;;;;;;;15.27;12.87;;;;;;;16.24;88.07;101493.34;5038333;28;20274;-83
2022/05/18 05:37:00;;;;;;;14.93;13.50;;;;;;;16.28;88.16;101490.31;5031396;28;20583;-84
2022/05/18 05:39:26;;;;;;;15.37;13.90;;;;;;;16.33;88.06;101489.94;5025372;28;20229;-84
2022/05/18 05:41:54;;;;;;;16.50;14.47;;;;;;;16.37;88.12;101491.44;5028359;28;20199;-83
2022/05/18 05:44:21;;;;;;;15.23;13.63;;;;;;;16.42;88.14;101486.59;5018103;28;20228;-85
2022/05/18 05:46:47;;;;;;;14.87;13.47;;;;;;;16.46;88.10;101498.84;5025220;28;20693;-83
2022/05/18 05:49:14;;;;;;;15.13;13.53;;;;;;;16.48;88.21;101488.81;5036902;28;20715;-84
2022/05/18 05:51:41;;;;;;;14.47;13.17;;;;;;;16.53;88.43;101485.78;5037697;28;20212;-85
2022/05/18 05:54:08;;;;;;;14.33;13.03;;;;;;;16.56;88.33;101480.16;5038408;28;20235;-84
2022/05/18 05:56:34;;;;;;;14.00;12.60;;;;;;;16.60;88.06;101482.53;5037464;28;20207;-84
2022/05/18 05:59:02;;;;;;;14.37;12.90;;;;;;;16.69;88.47;101489.06;5037693;28;20234;-85
2022/05/18 06:01:29;;;;;;;14.13;12.67;;;;;;;16.82;88.58;101489.88;5037612;28;20206;-85
2022/05/18 06:03:56;;;;;;;15.10;13.60;;;;;;;16.99;88.84;101485.88;5036949;28;20208;-85
2022/05/18 06:06:23;;;;;;;14.33;12.83;;;;;;;17.18;88.69;101480.78;5035693;28;20214;-85
2022/05/18 06:08:49;;;;;;;15.03;13.50;;;;;;;17.38;87.64;101489.16;5036680;28;20229;-85
2022/05/18 06:11:16;;;;;;;16.03;12.60;;;;;;;17.54;87.14;101481.56;5036874;28;20201;-84
2022/05/18 06:13:42;;;;;;;16.53;13.23;;;;;;;17.74;86.58;101488.94;5036320;28;20205;-85
2022/05/18 06:16:10;;;;;;;13.93;12.63;;;;;;;17.95;85.87;101476.41;5035478;28;20199;-85
2022/05/18 06:18:38;;;;;;;14.20;12.70;;;;;;;18.14;84.11;101477.63;5035410;28;20250;-85
2022/05/18 06:21:05;;;;;;;12.13;10.77;;;;;;;18.31;83.37;101479.78;5036527;28;20206;-84
2022/05/18 06:23:32;;;;;;;11.53;10.30;;;;;;;18.49;82.10;101480.94;5035607;28;20209;-84
2022/05/18 06:26:00;;;;;;;11.10;10.00;;;;;;;18.70;81.31;101484.59;5035934;28;20236;-84
2022/05/18 06:28:27;;;;;;;9.17;8.27;;;;;;;18.91;80.08;101484.63;5035026;28;20845;-84
2022/05/18 06:30:53;;;;;;;9.90;8.67;;;;;;;19.10;78.72;101485.75;5036357;28;20216;-83
2022/05/18 06:33:22;;;;;;;7.53;6.93;;;;;;;19.24;76.50;101483.56;5034394;28;20596;-83
2022/05/18 06:35:51;;;;;;;8.37;7.17;;;;;;;19.40;75.55;101486.63;5034159;28;20233;-83
2022/05/18 06:38:18;;;;;;;8.30;7.27;;;;;;;19.58;74.60;101481.50;5032212;28;20242;-83
2022/05/18 06:43:30;;;;;;;8.00;7.30;;;;;;;19.99;72.65;101485.06;5012654;28;20316;-83
2022/05/18 06:45:56;;;;;;;7.93;7.13;;;;;;;20.16;71.48;101478.16;5017537;28;20712;-82
2022/05/18 06:48:24;;;;;;;7.53;6.63;;;;;;;20.36;70.30;101483.50;5029862;28;20227;-83
2022/05/18 06:50:51;;;;;;;6.27;5.67;;;;;;;20.56;69.55;101491.63;5023823;28;20206;-83
2022/05/18 06:53:17;;;;;;;6.87;6.37;;;;;;;20.77;68.65;101482.38;5018351;28;20219;-84
2022/05/18 06:55:44;;;;;;;8.90;6.07;;;;;;;20.98;67.63;101490.31;5015040;28;20309;-84
2022/05/18 06:58:11;;;;;;;6.53;5.85;;;;;;;21.19;66.97;101487.44;5022937;28;20253;-82
2022/05/18 07:00:37;;;;;;;5.95;5.45;;;;;;;21.38;66.23;101486.59;5017534;28;20784;-83
2022/05/18 07:03:04;;;;;;;5.78;5.20;;;;;;;21.52;64.89;101485.25;5019235;28;20270;-83
2022/05/18 07:05:32;;;;;;;6.82;5.25;;;;;;;21.61;63.93;101485.25;5016681;28;20286;-83
2022/05/18 07:07:59;;;;;;;7.50;5.30;;;;;;;21.64;63.03;101486.81;5022733;28;20233;-83
2022/05/18 07:10:27;;;;;;;5.40;4.90;;;;;;;21.65;63.00;101488.50;5023428;28;20202;-84
2022/05/18 07:12:54;;;;;;;5.53;5.03;;;;;;;21.73;63.52;101483.19;5022350;28;20210;-83
2022/05/18 07:15:20;;;;;;;5.47;5.00;;;;;;;21.91;63.65;101475.09;5023225;28;20222;-85
2022/05/18 07:17:47;;;;;;;6.25;5.22;;;;;;;22.09;63.15;101476.03;5031045;28;20209;-85
2022/05/18 07:20:14;;;;;;;7.43;4.53;;;;;;;22.27;62.43;101478.78;5031362;28;20260;-85
2022/05/18 07:22:42;;;;;;;4.82;4.32;;;;;;;22.43;61.67;101471.66;5031472;28;20206;-84
2022/05/18 07:25:09;;;;;;;6.60;4.90;;;;;;;22.62;60.98;101480.69;5031298;28;20286;-84
2022/05/18 07:27:35;;;;;;;7.30;4.57;;;;;;;22.81;60.85;101478.69;5026806;28;20213;-83
2022/05/18 07:30:04;;;;;;;4.40;4.00;;;;;;;23.04;60.28;101478.19;5023483;28;20210;-83
2022/05/18 07:32:31;;;;;;;4.88;3.90;;;;;;;23.19;58.78;101474.75;5013857;28;20221;-84
2022/05/18 07:34:57;;;;;;;4.53;4.10;;;;;;;23.34;58.19;101477.72;5019763;28;20230;-83
2022/05/18 07:37:24;;;;;;;4.22;3.70;;;;;;;23.51;57.80;101476.84;4992357;28;1076720;-83
2022/05/18 07:39:52;;;;;;;3.92;3.55;;;;;;;23.71;56.67;101471.19;5020208;28;20316;-84
2022/05/18 07:42:18;;;;;;;6.70;3.95;;;;;;;23.81;56.18;101471.94;5023718;28;20241;-83
2022/05/18 07:44:47;;;;;;;8.20;4.15;;;;;;;23.89;55.40;101469.22;5023657;28;20210;-83
2022/05/18 07:47:14;;;;;;;4.28;3.72;;;;;;;23.92;54.96;101471.63;5023341;28;20256;-84
2022/05/18 07:49:42;;;;;;;4.97;3.63;;;;;;;23.94;55.00;101476.91;5027355;28;20218;-86
2022/05/18 07:52:10;;;;;;;4.82;2.70;;;;;;;23.94;54.27;101482.34;5038274;28;20202;-86
2022/05/18 07:54:37;;;;;;;4.50;2.83;;;;;;;23.95;54.51;101484.91;5036964;28;20261;-85
2022/05/18 07:57:09;;;;;;;5.10;3.30;;;;;;;24.01;53.57;101483.38;5037996;28;20227;-84
2022/05/18 07:59:35;;;;;;;4.50;3.20;;;;;;;24.07;53.15;101480.84;5038542;28;20240;-87
2022/05/18 08:02:02;;;;;;;4.10;2.90;;;;;;;24.22;52.93;101479.19;5038789;28;20208;-86
2022/05/18 08:04:28;;;;;;;4.78;3.40;;;;;;;24.38;52.92;101483.88;5038832;28;20210;-86
2022/05/18 08:06:55;;;;;;;6.03;2.97;;;;;;;24.55;53.00;101480.16;5036826;28;20217;-86
2022/05/18 08:09:22;;;;;;;4.30;3.13;;;;;;;24.70;52.21;101494.00;5037491;28;20234;-86
2022/05/18 08:17:20;;;;;;;6.47;3.35;;;;;;;24.92;50.91;101487.00;5036097;28;20232;-86
2022/05/18 08:19:47;;;;;;;4.72;3.70;;;;;;;24.85;50.48;101492.28;5037619;28;20222;-86
2022/05/18 08:22:14;;;;;;;4.53;3.90;;;;;;;24.77;50.95;101491.41;5036898;28;20210;-86
2022/05/18 08:24:41;;;;;;;5.40;3.55;;;;;;;24.70;51.12;101488.53;5037405;28;20209;-85
2022/05/18 08:27:13;;;;;;;3.97;3.53;;;;;;;24.63;51.46;101486.63;5036717;28;20269;-86
2022/05/18 08:29:41;;;;;;;4.85;3.70;;;;;;;24.52;51.83;101483.22;5036745;28;20226;-86
2022/05/18 08:32:08;;;;;;;3.63;3.30;;;;;;;24.46;52.01;101485.75;5037526;28;20208;-86
2022/05/18 08:34:34;;;;;;;5.57;4.07;;;;;;;24.42;52.26;101476.22;5037520;28;20206;-86
2022/05/18 08:37:01;;;;;;;4.10;3.63;;;;;;;24.37;51.67;101475.84;5035799;28;20216;-87
2022/05/18 08:39:28;;;;;;;5.05;3.47;;;;;;;24.32;52.42;101475.53;5036536;28;20229;-87
2022/05/18 08:41:58;;;;;;;4.75;3.15;;;;;;;24.35;52.71;101476.06;5037249;28;20198;-86
2022/05/18 08:44:28;;;;;;;4.20;3.35;;;;;;;24.41;52.76;101480.81;5036503;28;20209;-86
2022/05/18 08:47:10;;;;;;;9.00;3.75;;;;;;;24.50;52.68;101484.41;5036727;28;20206;-86
2022/05/18 08:49:41;;;;;;;5.10;3.72;;;;;;;24.59;52.64;101486.13;5036194;28;20226;-86
2022/05/18 08:52:25;;;;;;;6.95;3.95;;;;;;;24.71;52.48;101483.94;5036450;28;20213;-87
2022/05/18 08:55:09;;;;;;;4.25;3.13;;;;;;;24.85;52.35;101484.13;5036033;28;20210;-86
2022/05/18 08:57:40;;;;;;;4.53;3.03;;;;;;;25.00;51.90;101483.47;5036325;28;20566;-86
2022/05/18 09:00:12;;;;;;;4.53;3.47;;;;;;;25.11;50.84;101477.66;5037447;28;20790;-85
2022/05/18 09:02:42;;;;;;;3.53;3.22;;;;;;;25.23;50.73;101479.03;5037805;28;20204;-85
2022/05/18 09:05:14;;;;;;;3.72;3.20;;;;;;;25.36;50.45;101475.75;5036300;28;20182;-85
2022/05/18 09:07:47;;;;;;;12.90;4.25;;;;;;;25.49;50.18;101471.47;5037056;28;20190;-86
2022/05/18 09:10:23;;;;;;;4.88;3.17;;;;;;;25.52;49.53;101465.66;5036228;28;20187;-86
2022/05/18 09:12:50;;;;;;;6.65;3.58;;;;;;;25.59;50.03;101461.22;5036913;28;20194;-86
2022/05/18 09:15:20;;;;;;;4.18;3.13;;;;;;;25.68;49.59;101462.06;5035930;28;20234;-86
2022/05/18 09:17:55;;;;;;;3.88;2.92;;;;;;;25.81;49.38;101465.06;5035156;28;20204;-86
2022/05/18 09:20:24;;;;;;;4.45;3.25;;;;;;;25.94;48.91;101459.06;5036574;28;20189;-86
2022/05/18 09:23:19;;;;;;;4.95;3.30;;;;;;;26.09;49.39;101456.44;5036031;28;20292;-85
2022/05/18 09:25:56;;;;;;;3.72;3.25;;;;;;;26.26;48.91;101458.88;5035922;28;20210;-85
2022/05/18 09:28:35;;;;;;;5.35;3.40;;;;;;;26.43;48.20;101456.94;5035469;28;20305;-84
2022/05/18 09:31:13;;;;;;;4.00;2.80;;;;;;;26.58;48.11;101457.84;5035735;28;20224;-85
2022/05/18 09:33:59;;;;;;;4.47;3.28;;;;;;;26.69;47.40;101453.84;5036144;28;20186;-85
2022/05/18 09:36:39;;;;;;;4.95;3.10;;;;;;;26.81;47.70;101457.00;5035448;28;20233;-85
2022/05/18 09:39:09;;;;;;;4.35;2.90;;;;;;;26.94;47.41;101457.25;5036750;28;20237;-86
2022/05/18 09:41:39;;;;;;;3.10;2.80;;;;;;;27.08;46.07;101455.56;5036036;28;20237;-86
2022/05/18 09:44:17;;;;;;;3.63;3.08;;;;;;;27.18;45.49;101448.81;5040593;28;20653;-85
2022/05/18 09:46:44;;;;;;;4.57;2.90;;;;;;;27.35;45.31;101452.25;5039252;28;20237;-86
2022/05/18 09:49:20;;;;;;;3.30;3.00;;;;;;;27.49;44.49;101447.81;5037730;28;20730;-86
2022/05/18 09:51:48;;;;;;;4.32;2.70;;;;;;;27.58;44.02;101439.34;5038009;28;20603;-86
2022/05/18 09:54:14;;;;;;;3.38;3.08;;;;;;;27.70;44.10;101436.13;5038281;28;20214;-86
2022/05/18 09:56:44;;;;;;;3.67;2.60;;;;;;;27.81;43.56;101444.69;5039892;28;20387;-85
2022/05/18 09:59:17;;;;;;;3.10;2.63;;;;;;;27.87;43.41;101441.22;5039606;28;20226;-86
2022/05/18 10:07:34;;;;;;;3.33;2.78;;;;;;;28.20;42.90;101430.69;5059087;28;20193;-86
2022/05/18 10:10:10;;;;;;;4.22;2.85;;;;;;;28.39;42.75;101426.47;5056175;28;20185;-85
2022/05/18 10:12:41;;;;;;;4.70;2.63;;;;;;;28.53;42.17;101432.91;5053995;28;20707;-85
2022/05/18 10:15:21;;;;;;;3.15;2.42;;;;;;;28.64;41.51;101430.53;5052744;28;20213;-85
2022/05/18 10:17:54;;;;;;;3.28;2.13;;;;;;;28.74;40.62;101435.66;5052484;28;20217;-85
2022/05/18 10:20:26;;;;;;;3.42;2.33;;;;;;;28.73;39.73;101420.25;5054431;28;20549;-85
2022/05/18 10:22:54;;;;;;;4.55;2.13;;;;;;;28.68;39.02;101434.53;5054090;28;20210;-85
2022/05/18 10:25:29;;;;;;;2.65;2.30;;;;;;;28.63;39.50;101439.78;5052425;28;20211;-85
2022/05/18 10:27:56;;;;;;;2.67;2.47;;;;;;;28.59;39.26;101446.69;5051981;28;20312;-86
2022/05/18 10:30:28;;;;;;;4.00;2.35;;;;;;;28.57;39.54;101432.34;5052139;28;20232;-85
2022/05/18 10:33:02;;;;;;;3.67;2.42;;;;;;;28.66;39.29;101436.63;5052024;28;20189;-85
2022/05/18 10:35:36;;;;;;;2.78;2.13;;;;;;;28.72;39.28;101435.00;5052959;28;20283;-86
2022/05/18 10:38:14;;;;;;;3.97;1.92;;;;;;;28.77;38.62;101432.53;5051700;28;20233;-86
2022/05/18 10:40:41;;;;;;;4.75;2.58;;;;;;;28.84;37.75;101425.22;5052406;28;20205;-86
2022/05/18 10:43:27;;;;;;;3.08;1.83;;;;;;;28.88;37.44;101425.69;5035255;28;20202;-86
2022/05/18 10:45:56;;;;;;;3.47;2.70;;;;;;;28.96;38.13;101429.13;5032462;28;20212;-86
2022/05/18 10:48:27;;;;;;;3.70;2.60;;;;;;;29.01;38.37;101421.19;5033239;28;20594;-86
2022/05/18 10:51:02;;;;;;;3.95;2.67;;;;;;;29.10;38.11;101412.78;5033779;28;20198;-87
2022/05/18 10:53:33;;;;;;;2.78;2.40;;;;;;;29.16;38.54;101423.81;5034212;28;20240;-85
2022/05/18 10:56:04;;;;;;;4.40;2.60;;;;;;;29.20;38.06;101418.78;5032364;28;20230;-86
2022/05/18 10:58:34;;;;;;;2.72;2.15;;;;;;;29.26;37.93;101412.47;5032798;28;20230;-85
2022/05/18 11:01:03;;;;;;;2.78;2.50;;;;;;;29.32;37.67;101408.94;5033593;28;20214;-86
2022/05/18 11:03:35;;;;;;;4.55;2.20;;;;;;;29.35;36.75;101414.88;5033949;28;20578;-86
2022/05/18 11:06:08;;;;;;;2.33;2.13;;;;;;;29.39;35.47;101412.56;5033533;28;20277;-85
2022/05/18 11:08:35;;;;;;;3.25;2.38;;;;;;;29.44;35.46;101407.34;5033713;28;20230;-85
2022/05/18 11:11:09;;;;;;;2.40;2.20;;;;;;;29.53;34.88;101402.53;5033645;28;20202;-86
2022/05/18 11:13:42;;;;;;;2.55;1.90;;;;;;;29.60;35.10;101398.75;5033560;28;20196;-86
2022/05/18 11:16:22;;;;;;;5.60;2.30;;;;;;;29.69;35.52;101400.28;5032917;28;20206;-86
2022/05/18 11:18:53;;;;;;;4.13;2.42;;;;;;;29.76;34.83;101391.22;5033237;28;20712;-85
2022/05/18 11:21:31;;;;;;;2.30;2.05;;;;;;;29.79;34.11;101397.16;5034191;28;20308;-86
2022/05/18 11:24:08;;;;;;;2.58;2.10;;;;;;;29.78;34.52;101391.88;5034207;28;20190;-85
2022/05/18 11:26:48;;;;;;;3.97;2.03;;;;;;;29.79;34.77;101388.06;5033293;28;20189;-86
2022/05/18 11:29:40;;;;;;;2.47;2.20;;;;;;;29.90;35.13;101387.50;5032898;28;20237;-85
2022/05/18 11:32:20;;;;;;;3.72;2.35;;;;;;;29.97;35.03;101383.72;5033554;28;20194;-86
2022/05/18 11:35:00;;;;;;;2.55;1.90;;;;;;;30.01;34.82;101376.78;5033594;28;20256;-85
2022/05/18 11:37:58;;;;;;;3.85;2.20;;;;;;;30.08;35.55;101378.72;5033059;28;20225;-86
2022/05/18 11:40:34;;;;;;;3.22;2.40;;;;;;;30.15;35.87;101385.03;5032133;28;20205;-86
2022/05/18 11:43:28;;;;;;;4.22;2.72;;;;;;;30.21;35.22;101382.31;5033327;28;20316;-86
2022/05/18 11:46:08;;;;;;;3.05;2.47;;;;;;;30.25;35.87;101377.25;5033044;28;20197;-85
2022/05/18 11:48:44;;;;;;;3.55;2.35;;;;;;;30.27;35.66;101378.75;5034288;28;20233;-85